ADDS METAR Data INFO
IDs: Format: Raw Decoded Include TAF

Data at: 0424 UTC 26 May 2018

KSPS 260352Z AUTO 15013KT 10SM CLR 26/16 A2978 RMK AO2 PK WND 17027/0259 SLP071 T02610156
KSPS 260252Z AUTO 17019G25KT 10SM CLR 27/14 A2979 RMK AO2 PK WND 17027/0231 SLP073 T02670139 58002
KSPS 260152Z AUTO 18010KT 10SM CLR 26/18 A2983 RMK AO2 PRESRR SLP088 T02610178
KSPS 260052Z AUTO 15014KT 10SM CLR 28/20 A2980 RMK AO2 SLP076 T02830200
KSPS 252352Z AUTO 14015G25KT 10SM CLR 30/19 A2980 RMK AO2 PK WND 13028/2333 SLP076 T03000189 10328 20283 56020
KSPS 252252Z AUTO 13016KT 10SM CLR 32/22 A2980 RMK AO2 SLP078 T03220222
KSPS 252152Z AUTO 13015KT 10SM CLR 32/22 A2982 RMK AO2 SLP084 T03220217
KSPS 252052Z AUTO 12015G19KT 10SM CLR 32/22 A2986 RMK AO2 SLP096 T03220222 56024
KSPS 251952Z AUTO 14011KT 10SM CLR 31/22 A2988 RMK AO2 SLP102 T03110217
KSPS 251852Z AUTO 14010KT 10SM CLR 30/21 A2990 RMK AO2 SLP112 T03000211
KSPS 251752Z AUTO 12011KT 10SM CLR 28/19 A2993 RMK AO2 SLP122 T02830194 10294 20217 58007
KSPS 251652Z AUTO 10014KT 10SM CLR 27/19 A2996 RMK AO2 PK WND 06027/1604 SLP131 T02720189
KSPS 251552Z AUTO 05010KT 10SM FEW080 29/20 A2998 RMK AO2 SLP137 T02890200
KSPS 251452Z AUTO 19009KT 10SM CLR 27/20 A2995 RMK AO2 SLP128 T02720200 51010
KSPS 251352Z AUTO 19011KT 10SM CLR 26/19 A2995 RMK AO2 SLP128 T02560194
KSPS 251252Z AUTO 20010KT 10SM CLR 24/19 A2994 RMK AO2 SLP123 T02390189
KSPS 251152Z AUTO 18008KT 10SM CLR 22/19 A2992 RMK AO2 SLP119 T02170189 10233 20206 55004
KSPS 251052Z AUTO 16007KT 10SM CLR 21/18 A2992 RMK AO2 SLP118 T02060183
KSPS 250952Z AUTO 17009KT 10SM CLR 22/18 A2993 RMK AO2 SLP120 T02170183
KSPS 250852Z AUTO 18009KT 10SM CLR 22/18 A2994 RMK AO2 SLP122 T02220183 57012
KSPS 250752Z AUTO 16010KT 10SM CLR 23/18 A2995 RMK AO2 SLP127 T02280178
KSPS 250652Z AUTO 16011KT 10SM CLR 23/18 A2996 RMK AO2 SLP130 T02330178
KSPS 250552Z AUTO 16008KT 10SM CLR 22/18 A2997 RMK AO2 SLP136 T02220183 10306 20222 403170183 58001
KSPS 250452Z AUTO 16010KT 10SM CLR 24/18 A2998 RMK AO2 SLP138 T02390183
KSPS 250352Z AUTO 15010KT 10SM CLR 24/18 A2999 RMK AO2 SLP143 T02440183
KSPS 250252Z AUTO 15010KT 10SM CLR 26/19 A2997 RMK AO2 SLP137 T02560194 53008
KSPS 250152Z AUTO 13008KT 10SM CLR 26/19 A2996 RMK AO2 SLP132 T02610194
KSPS 250052Z AUTO 13008KT 10SM CLR 29/19 A2995 RMK AO2 SLP128 T02890194
KSPS 242352Z 13010KT 10SM FEW050 31/19 A2995 RMK AO2 SLP130 T03060189 10317 20294 56018
KSPS 242252Z 12012KT 10SM FEW050 31/19 A2996 RMK AO2 SLP132 T03110194
KSPS 242152Z 12010G16KT 10SM CLR 32/19 A2998 RMK AO2 SLP138 T03170189
KSPS 242052Z 16006KT 10SM FEW050 SCT250 31/19 A3001 RMK AO2 SLP148 T03110194 57015
KSPS 241952Z AUTO 13011KT 10SM FEW050 SCT250 31/20 A3002 RMK AO2 SLP154 T03060200
KSPS 241852Z 17006KT 10SM CLR 30/20 A3003 RMK AO2 SLP157 T03000200
KSPS 241752Z 19010KT 10SM FEW050 SCT250 29/20 A3005 RMK AO2 SLP163 T02940200 10294 20189 58010
KSPS 241652Z 18007KT 10SM FEW050 SCT280 28/20 A3007 RMK AO2 SLP169 T02830200